createdAt,value
2023-01-28T14:28:59.509Z,99824.84
2023-01-28T14:29:43.141Z,99827.41
2023-01-28T14:30:31.440Z,99829.91
2023-01-28T14:31:18.050Z,99821.66
2023-01-28T14:31:51.056Z,99825.81
2023-01-28T14:32:29.135Z,99828.28
2023-01-28T14:33:00.280Z,99833.28
2023-01-28T14:33:33.011Z,99829.13
2023-01-28T14:34:22.893Z,99830.00
2023-01-28T14:34:56.916Z,99829.16
2023-01-28T14:35:34.609Z,99820.06
2023-01-28T14:36:07.060Z,99829.19
2023-01-28T14:36:40.730Z,99827.53
2023-01-28T14:37:22.597Z,99832.53
2023-01-28T14:37:54.645Z,99827.56
2023-01-28T14:38:26.116Z,99830.06
2023-01-28T14:38:58.038Z,99824.28
2023-01-28T14:39:33.075Z,99826.75
2023-01-28T14:50:48.902Z,99845.91
2023-01-28T15:01:27.969Z,99854.22
2023-01-28T15:11:53.184Z,99865.94
2023-01-28T15:22:16.333Z,99868.44
2023-01-28T15:32:37.857Z,99870.97
2023-01-28T15:42:59.277Z,99880.88
2023-01-28T15:53:20.664Z,99882.47
2023-01-28T16:03:44.954Z,99878.31
2023-01-28T16:14:06.472Z,99893.94
2023-01-28T16:24:32.825Z,99889.75
2023-01-28T16:34:54.071Z,99891.38
2023-01-28T16:45:29.075Z,99904.66
2023-01-28T16:55:51.611Z,99902.13
2023-01-28T17:06:18.277Z,99912.78
2023-01-28T17:16:40.320Z,99912.06
2023-01-28T17:27:01.785Z,99905.69
2023-01-28T17:37:23.177Z,99896.56
2023-01-28T17:47:44.601Z,99897.34
2023-01-28T17:58:06.288Z,99903.16
2023-01-28T18:08:27.659Z,99904.66
2023-01-28T18:18:50.429Z,99919.59
2023-01-28T18:29:20.334Z,99924.56
2023-01-28T18:39:43.385Z,99930.25
2023-01-28T18:50:06.203Z,99931.94
2023-01-28T19:00:26.815Z,99931.16
2023-01-28T19:10:56.260Z,99932.75
2023-01-28T19:21:16.712Z,99924.31
2023-01-28T19:31:39.138Z,99922.69
2023-01-28T19:42:02.174Z,99927.66
2023-01-28T21:32:57.951Z,99954.56
2023-01-28T21:43:19.682Z,99957.00
2023-01-28T21:53:42.324Z,99962.00
2023-01-28T22:04:04.530Z,99966.09
2023-01-28T22:14:26.748Z,99959.47
2023-01-28T22:24:47.995Z,99945.41
2023-01-28T22:35:09.848Z,99942.09
2023-01-28T22:45:31.437Z,99945.41
2023-01-28T22:55:55.776Z,99932.94
2023-01-28T23:06:20.351Z,99928.75
2023-01-28T23:17:08.163Z,99920.50
2023-01-28T23:27:29.721Z,99909.75
2023-01-28T23:37:50.984Z,99916.31
2023-01-28T23:48:12.637Z,99912.97
2023-01-28T23:58:43.346Z,99902.19
